sensor_id;sensor_type;location;lat;lon;timestamp;pressure;altitude;pressure_sealevel;temperature;humidity
14882;BME280;7533;51.278;12.588;2023-01-29T00:07:38;101343.81;;;22.25;55.51
14882;BME280;7533;51.278;12.588;2023-01-29T00:12:40;101330.34;;;22.25;55.60
14882;BME280;7533;51.278;12.588;2023-01-29T00:17:45;101322.41;;;22.22;55.80
14882;BME280;7533;51.278;12.588;2023-01-29T00:27:50;101325.66;;;22.28;55.37
14882;BME280;7533;51.278;12.588;2023-01-29T00:32:54;101317.88;;;22.22;55.56
14882;BME280;7533;51.278;12.588;2023-01-29T00:37:57;101312.50;;;22.22;55.51
14882;BME280;7533;51.278;12.588;2023-01-29T00:43:00;101322.25;;;22.25;55.55
14882;BME280;7533;51.278;12.588;2023-01-29T00:48:22;101321.38;;;22.24;55.69
14882;BME280;7533;51.278;12.588;2023-01-29T00:53:25;101322.16;;;22.26;55.65
14882;BME280;7533;51.278;12.588;2023-01-29T00:58:28;101315.44;;;22.33;55.49
14882;BME280;7533;51.278;12.588;2023-01-29T01:03:36;101301.09;;;22.33;55.45
14882;BME280;7533;51.278;12.588;2023-01-29T01:08:42;101305.38;;;22.37;55.39
14882;BME280;7533;51.278;12.588;2023-01-29T01:14:02;101298.34;;;22.34;55.43
14882;BME280;7533;51.278;12.588;2023-01-29T01:19:06;101292.94;;;22.34;55.40
14882;BME280;7533;51.278;12.588;2023-01-29T01:24:10;101297.72;;;22.29;55.31
14882;BME280;7533;51.278;12.588;2023-01-29T01:29:13;101299.91;;;22.23;55.64
14882;BME280;7533;51.278;12.588;2023-01-29T01:34:17;101288.84;;;22.11;55.94
14882;BME280;7533;51.278;12.588;2023-01-29T01:39:20;101281.47;;;21.98;56.37
14882;BME280;7533;51.278;12.588;2023-01-29T01:44:50;101271.72;;;21.79;57.04
14882;BME280;7533;51.278;12.588;2023-01-29T01:50:00;101265.09;;;21.69;57.32
14882;BME280;7533;51.278;12.588;2023-01-29T01:55:06;101258.31;;;21.62;57.43
14882;BME280;7533;51.278;12.588;2023-01-29T02:00:14;101257.22;;;21.49;57.95
14882;BME280;7533;51.278;12.588;2023-01-29T02:05:19;101269.13;;;21.45;57.95
14882;BME280;7533;51.278;12.588;2023-01-29T02:10:44;101269.94;;;21.29;58.52
14882;BME280;7533;51.278;12.588;2023-01-29T02:15:47;101267.53;;;21.23;58.64
14882;BME280;7533;51.278;12.588;2023-01-29T02:21:06;101270.56;;;21.00;59.10
14882;BME280;7533;51.278;12.588;2023-01-29T02:26:26;101276.81;;;20.83;59.67
14882;BME280;7533;51.278;12.588;2023-01-29T02:31:40;101277.69;;;20.83;59.89
14882;BME280;7533;51.278;12.588;2023-01-29T02:36:49;101287.69;;;20.63;60.16
14882;BME280;7533;51.278;12.588;2023-01-29T02:42:00;101288.97;;;20.55;60.30
14882;BME280;7533;51.278;12.588;2023-01-29T02:47:11;101280.25;;;20.50;60.46
14882;BME280;7533;51.278;12.588;2023-01-29T02:52:20;101287.72;;;20.44;60.88
14882;BME280;7533;51.278;12.588;2023-01-29T02:57:28;101290.53;;;20.41;61.11
14882;BME280;7533;51.278;12.588;2023-01-29T03:02:38;101288.16;;;20.34;61.01
14882;BME280;7533;51.278;12.588;2023-01-29T03:07:49;101280.31;;;20.30;61.04
14882;BME280;7533;51.278;12.588;2023-01-29T03:13:05;101263.41;;;20.28;61.17
14882;BME280;7533;51.278;12.588;2023-01-29T03:18:14;101262.75;;;20.23;61.15
14882;BME280;7533;51.278;12.588;2023-01-29T03:23:22;101257.44;;;20.21;61.15
14882;BME280;7533;51.278;12.588;2023-01-29T03:28:49;101263.91;;;20.17;61.37
14882;BME280;7533;51.278;12.588;2023-01-29T03:34:16;101279.47;;;20.11;61.51
14882;BME280;7533;51.278;12.588;2023-01-29T03:39:26;101271.41;;;20.11;61.78
14882;BME280;7533;51.278;12.588;2023-01-29T03:44:35;101269.06;;;20.03;61.98
14882;BME280;7533;51.278;12.588;2023-01-29T03:49:55;101272.88;;;19.99;62.01
14882;BME280;7533;51.278;12.588;2023-01-29T03:55:03;101268.66;;;19.93;62.23
14882;BME280;7533;51.278;12.588;2023-01-29T04:00:16;101257.09;;;19.91;62.32
14882;BME280;7533;51.278;12.588;2023-01-29T04:05:39;101257.38;;;19.85;62.44
14882;BME280;7533;51.278;12.588;2023-01-29T04:10:53;101260.06;;;19.85;62.39
14882;BME280;7533;51.278;12.588;2023-01-29T04:15:59;101255.81;;;19.81;62.29
14882;BME280;7533;51.278;12.588;2023-01-29T04:21:24;101249.69;;;19.77;62.73
14882;BME280;7533;51.278;12.588;2023-01-29T04:26:40;101249.91;;;19.73;62.71
14882;BME280;7533;51.278;12.588;2023-01-29T04:31:55;101246.41;;;19.71;62.80
14882;BME280;7533;51.278;12.588;2023-01-29T04:37:11;101223.31;;;19.67;62.69
14882;BME280;7533;51.278;12.588;2023-01-29T04:42:25;101218.03;;;19.65;62.80
14882;BME280;7533;51.278;12.588;2023-01-29T04:47:35;101217.16;;;19.65;62.99
14882;BME280;7533;51.278;12.588;2023-01-29T04:52:50;101216.50;;;19.60;63.15
14882;BME280;7533;51.278;12.588;2023-01-29T04:58:01;101209.41;;;19.59;63.29
14882;BME280;7533;51.278;12.588;2023-01-29T05:03:06;101201.34;;;19.57;63.38
14882;BME280;7533;51.278;12.588;2023-01-29T05:08:17;101195.13;;;19.56;63.25
14882;BME280;7533;51.278;12.588;2023-01-29T05:13:22;101185.34;;;19.55;63.36
14882;BME280;7533;51.278;12.588;2023-01-29T05:18:27;101187.16;;;19.55;63.44
14882;BME280;7533;51.278;12.588;2023-01-29T05:23:32;101175.63;;;19.53;63.40
14882;BME280;7533;51.278;12.588;2023-01-29T05:28:35;101163.19;;;19.50;63.33
14882;BME280;7533;51.278;12.588;2023-01-29T05:33:38;101173.19;;;19.47;63.43
14882;BME280;7533;51.278;12.588;2023-01-29T05:38:42;101173.94;;;19.50;63.36
14882;BME280;7533;51.278;12.588;2023-01-29T05:43:45;101179.47;;;19.47;63.39
14882;BME280;7533;51.278;12.588;2023-01-29T05:48:51;101174.13;;;19.46;63.52
14882;BME280;7533;51.278;12.588;2023-01-29T05:53:55;101181.31;;;19.45;63.57
14882;BME280;7533;51.278;12.588;2023-01-29T05:58:58;101170.75;;;19.42;63.47
14882;BME280;7533;51.278;12.588;2023-01-29T06:04:01;101167.13;;;19.43;63.45
14882;BME280;7533;51.278;12.588;2023-01-29T06:09:05;101169.78;;;19.43;63.49
14882;BME280;7533;51.278;12.588;2023-01-29T06:14:08;101184.31;;;19.39;63.50
14882;BME280;7533;51.278;12.588;2023-01-29T06:19:10;101189.59;;;19.41;63.62
14882;BME280;7533;51.278;12.588;2023-01-29T06:24:15;101188.72;;;19.40;63.79
14882;BME280;7533;51.278;12.588;2023-01-29T06:29:17;101192.44;;;19.38;63.87
14882;BME280;7533;51.278;12.588;2023-01-29T06:34:20;101188.88;;;19.37;63.88
14882;BME280;7533;51.278;12.588;2023-01-29T06:39:24;101210.34;;;19.37;63.77
14882;BME280;7533;51.278;12.588;2023-01-29T06:44:27;101213.97;;;19.36;63.80
14882;BME280;7533;51.278;12.588;2023-01-29T06:49:30;101234.56;;;19.36;63.81
14882;BME280;7533;51.278;12.588;2023-01-29T06:54:35;101255.25;;;19.34;63.96
14882;BME280;7533;51.278;12.588;2023-01-29T06:59:37;101270.56;;;19.32;63.96
14882;BME280;7533;51.278;12.588;2023-01-29T07:04:40;101270.59;;;19.30;63.99
14882;BME280;7533;51.278;12.588;2023-01-29T07:09:44;101261.69;;;19.29;64.07
14882;BME280;7533;51.278;12.588;2023-01-29T07:14:47;101266.19;;;19.29;64.28
14882;BME280;7533;51.278;12.588;2023-01-29T07:19:50;101280.47;;;19.29;64.36
14882;BME280;7533;51.278;12.588;2023-01-29T07:24:55;101283.22;;;19.28;64.46
14882;BME280;7533;51.278;12.588;2023-01-29T07:29:58;101270.84;;;19.25;64.40
14882;BME280;7533;51.278;12.588;2023-01-29T07:35:01;101258.28;;;19.26;64.44
14882;BME280;7533;51.278;12.588;2023-01-29T07:40:06;101246.72;;;19.24;64.42
14882;BME280;7533;51.278;12.588;2023-01-29T07:45:12;101263.78;;;19.23;64.41
14882;BME280;7533;51.278;12.588;2023-01-29T07:50:15;101270.00;;;19.23;64.40
14882;BME280;7533;51.278;12.588;2023-01-29T07:55:20;101250.34;;;19.23;64.39
14882;BME280;7533;51.278;12.588;2023-01-29T08:00:23;101237.09;;;19.20;64.62
14882;BME280;7533;51.278;12.588;2023-01-29T08:05:25;101215.84;;;19.34;64.37
14882;BME280;7533;51.278;12.588;2023-01-29T08:10:30;101224.81;;;19.53;63.32
14882;BME280;7533;51.278;12.588;2023-01-29T08:15:33;101201.97;;;19.64;61.21
14882;BME280;7533;51.278;12.588;2023-01-29T08:20:39;101191.81;;;17.85;51.14
14882;BME280;7533;51.278;12.588;2023-01-29T08:25:43;101195.31;;;19.14;51.36
14882;BME280;7533;51.278;12.588;2023-01-29T08:30:46;101208.28;;;19.63;51.09
14882;BME280;7533;51.278;12.588;2023-01-29T08:35:49;101207.94;;;19.89;51.54
14882;BME280;7533;51.278;12.588;2023-01-29T08:40:54;101208.94;;;20.05;52.79
14882;BME280;7533;51.278;12.588;2023-01-29T08:45:56;101235.22;;;20.18;53.42
14882;BME280;7533;51.278;12.588;2023-01-29T08:51:00;101221.25;;;20.28;54.14
14882;BME280;7533;51.278;12.588;2023-01-29T08:56:06;101227.03;;;20.38;54.71
14882;BME280;7533;51.278;12.588;2023-01-29T09:01:11;101244.50;;;20.48;55.08
14882;BME280;7533;51.278;12.588;2023-01-29T09:06:15;101236.03;;;20.56;55.26
14882;BME280;7533;51.278;12.588;2023-01-29T09:11:19;101215.94;;;20.63;55.68
14882;BME280;7533;51.278;12.588;2023-01-29T09:16:22;101217.34;;;20.70;55.96
14882;BME280;7533;51.278;12.588;2023-01-29T09:21:24;101213.34;;;20.79;56.19
14882;BME280;7533;51.278;12.588;2023-01-29T09:26:29;101192.44;;;20.84;56.50
14882;BME280;7533;51.278;12.588;2023-01-29T09:31:31;101185.09;;;20.88;56.65
14882;BME280;7533;51.278;12.588;2023-01-29T09:36:34;101171.56;;;20.89;56.72
14882;BME280;7533;51.278;12.588;2023-01-29T09:41:55;101171.38;;;20.92;56.73
14882;BME280;7533;51.278;12.588;2023-01-29T09:47:01;101165.84;;;20.95;56.96
14882;BME280;7533;51.278;12.588;2023-01-29T09:52:14;101169.22;;;20.99;57.09
14882;BME280;7533;51.278;12.588;2023-01-29T09:57:24;101184.25;;;21.03;57.02
14882;BME280;7533;51.278;12.588;2023-01-29T10:02:48;101188.63;;;21.05;56.95
14882;BME280;7533;51.278;12.588;2023-01-29T10:08:12;101162.34;;;21.10;57.11
14882;BME280;7533;51.278;12.588;2023-01-29T10:13:28;101162.06;;;21.15;57.33
14882;BME280;7533;51.278;12.588;2023-01-29T10:24:15;101152.44;;;21.27;57.30
14882;BME280;7533;51.278;12.588;2023-01-29T10:29:26;101134.00;;;21.36;57.00
14882;BME280;7533;51.278;12.588;2023-01-29T10:34:37;101128.53;;;21.38;57.15
14882;BME280;7533;51.278;12.588;2023-01-29T10:39:43;101119.53;;;21.39;57.16
14882;BME280;7533;51.278;12.588;2023-01-29T10:44:58;101115.66;;;21.43;57.34
14882;BME280;7533;51.278;12.588;2023-01-29T10:50:17;101089.34;;;21.48;57.51
14882;BME280;7533;51.278;12.588;2023-01-29T10:55:37;101099.16;;;21.49;58.20
14882;BME280;7533;51.278;12.588;2023-01-29T11:00:44;101097.03;;;21.56;58.29
14882;BME280;7533;51.278;12.588;2023-01-29T11:05:51;101086.25;;;21.56;58.06
14882;BME280;7533;51.278;12.588;2023-01-29T11:11:03;101081.53;;;21.59;57.99
14882;BME280;7533;51.278;12.588;2023-01-29T11:16:09;101073.91;;;21.68;58.87
14882;BME280;7533;51.278;12.588;2023-01-29T11:21:12;101063.19;;;21.66;59.55
14882;BME280;7533;51.278;12.588;2023-01-29T11:26:18;101055.28;;;21.63;59.79
14882;BME280;7533;51.278;12.588;2023-01-29T11:31:25;101045.28;;;21.65;59.57
14882;BME280;7533;51.278;12.588;2023-01-29T11:36:31;101039.50;;;21.57;59.15
14882;BME280;7533;51.278;12.588;2023-01-29T11:41:42;101021.16;;;21.48;59.64
14882;BME280;7533;51.278;12.588;2023-01-29T11:46:47;101013.69;;;21.53;59.52
14882;BME280;7533;51.278;12.588;2023-01-29T11:51:53;100999.69;;;21.46;59.70
14882;BME280;7533;51.278;12.588;2023-01-29T11:56:57;101049.72;;;12.28;48.30
14882;BME280;7533;51.278;12.588;2023-01-29T12:02:22;101033.22;;;14.11;54.57
14882;BME280;7533;51.278;12.588;2023-01-29T12:07:27;101009.50;;;17.68;49.42
14882;BME280;7533;51.278;12.588;2023-01-29T12:12:40;101007.88;;;18.47;48.98
14882;BME280;7533;51.278;12.588;2023-01-29T12:17:55;100985.63;;;18.84;49.68
14882;BME280;7533;51.278;12.588;2023-01-29T12:23:10;100969.16;;;19.11;50.55
14882;BME280;7533;51.278;12.588;2023-01-29T12:28:25;100959.25;;;19.30;51.29
14882;BME280;7533;51.278;12.588;2023-01-29T12:33:40;100957.63;;;19.45;51.81
14882;BME280;7533;51.278;12.588;2023-01-29T12:38:45;100958.03;;;19.54;52.36
14882;BME280;7533;51.278;12.588;2023-01-29T12:43:51;100938.97;;;19.61;52.63
14882;BME280;7533;51.278;12.588;2023-01-29T12:49:01;100936.59;;;19.72;52.90
14882;BME280;7533;51.278;12.588;2023-01-29T12:54:06;100936.28;;;19.78;52.96
14882;BME280;7533;51.278;12.588;2023-01-29T12:59:16;100930.75;;;19.81;53.25
14882;BME280;7533;51.278;12.588;2023-01-29T13:04:31;100930.66;;;19.83;53.30
14882;BME280;7533;51.278;12.588;2023-01-29T13:09:40;100920.78;;;19.83;53.20
14882;BME280;7533;51.278;12.588;2023-01-29T13:14:49;100903.00;;;19.80;53.36
14882;BME280;7533;51.278;12.588;2023-01-29T13:19:56;100912.81;;;19.81;53.30
14882;BME280;7533;51.278;12.588;2023-01-29T13:25:01;100905.63;;;19.82;53.28
14882;BME280;7533;51.278;12.588;2023-01-29T13:30:21;100893.31;;;19.78;53.32
14882;BME280;7533;51.278;12.588;2023-01-29T13:35:26;100883.31;;;19.80;53.29
14882;BME280;7533;51.278;12.588;2023-01-29T13:40:30;100880.72;;;19.78;53.41
14882;BME280;7533;51.278;12.588;2023-01-29T13:45:42;100872.69;;;19.78;53.33
14882;BME280;7533;51.278;12.588;2023-01-29T13:50:50;100868.16;;;19.79;53.59
14882;BME280;7533;51.278;12.588;2023-01-29T13:55:53;100866.44;;;19.78;53.48
14882;BME280;7533;51.278;12.588;2023-01-29T14:00:57;100880.81;;;19.77;53.50
14882;BME280;7533;51.278;12.588;2023-01-29T14:06:03;100873.00;;;19.72;53.84
14882;BME280;7533;51.278;12.588;2023-01-29T14:11:34;100888.41;;;19.69;54.36
14882;BME280;7533;51.278;12.588;2023-01-29T14:16:37;100894.41;;;19.74;54.98
14882;BME280;7533;51.278;12.588;2023-01-29T14:21:48;100904.03;;;19.78;55.30
14882;BME280;7533;51.278;12.588;2023-01-29T14:26:53;100906.84;;;20.10;55.35
14882;BME280;7533;51.278;12.588;2023-01-29T14:31:58;100905.75;;;20.29;55.20
14882;BME280;7533;51.278;12.588;2023-01-29T14:37:19;100892.44;;;20.44;54.91
14882;BME280;7533;51.278;12.588;2023-01-29T14:42:25;100877.72;;;20.51;54.93
14882;BME280;7533;51.278;12.588;2023-01-29T14:48:02;100892.50;;;20.59;54.76
14882;BME280;7533;51.278;12.588;2023-01-29T14:53:10;100885.91;;;20.65;55.00
14882;BME280;7533;51.278;12.588;2023-01-29T14:58:17;100871.16;;;20.72;54.90
14882;BME280;7533;51.278;12.588;2023-01-29T15:03:28;100870.88;;;20.77;55.04
14882;BME280;7533;51.278;12.588;2023-01-29T15:08:39;100876.06;;;20.80;55.07
14882;BME280;7533;51.278;12.588;2023-01-29T15:13:51;100870.44;;;20.84;55.25
14882;BME280;7533;51.278;12.588;2023-01-29T15:19:12;100851.50;;;20.86;55.47
14882;BME280;7533;51.278;12.588;2023-01-29T15:24:19;100839.25;;;20.96;55.13
14882;BME280;7533;51.278;12.588;2023-01-29T15:29:23;100836.03;;;21.05;55.26
14882;BME280;7533;51.278;12.588;2023-01-29T15:34:27;100833.56;;;21.17;54.95
14882;BME280;7533;51.278;12.588;2023-01-29T15:39:41;100835.63;;;21.27;55.00
14882;BME280;7533;51.278;12.588;2023-01-29T15:44:44;100826.75;;;21.41;54.53
14882;BME280;7533;51.278;12.588;2023-01-29T15:49:48;100817.44;;;21.47;54.48
14882;BME280;7533;51.278;12.588;2023-01-29T15:54:54;100819.75;;;21.53;54.34
14882;BME280;7533;51.278;12.588;2023-01-29T15:59:57;100811.28;;;21.59;54.03
14882;BME280;7533;51.278;12.588;2023-01-29T16:05:02;100810.25;;;21.61;54.19
14882;BME280;7533;51.278;12.588;2023-01-29T16:10:14;100808.41;;;21.62;54.02
14882;BME280;7533;51.278;12.588;2023-01-29T16:15:27;100816.09;;;21.54;54.50
14882;BME280;7533;51.278;12.588;2023-01-29T16:20:37;100809.00;;;21.67;53.90
14882;BME280;7533;51.278;12.588;2023-01-29T16:25:43;100809.75;;;21.69;54.07
14882;BME280;7533;51.278;12.588;2023-01-29T16:30:46;100803.28;;;21.72;53.88
14882;BME280;7533;51.278;12.588;2023-01-29T16:35:49;100804.84;;;21.76;53.87
14882;BME280;7533;51.278;12.588;2023-01-29T16:41:28;100794.19;;;21.74;54.06
14882;BME280;7533;51.278;12.588;2023-01-29T16:46:34;100795.72;;;21.78;54.01
14882;BME280;7533;51.278;12.588;2023-01-29T16:51:38;100801.97;;;21.79;53.87
14882;BME280;7533;51.278;12.588;2023-01-29T16:56:44;100798.22;;;21.81;53.97
14882;BME280;7533;51.278;12.588;2023-01-29T17:01:48;100798.09;;;21.83;54.09
14882;BME280;7533;51.278;12.588;2023-01-29T17:06:54;100804.47;;;21.82;54.09
14882;BME280;7533;51.278;12.588;2023-01-29T17:12:02;100793.91;;;21.79;53.98
14882;BME280;7533;51.278;12.588;2023-01-29T17:17:14;100800.72;;;21.84;53.35
14882;BME280;7533;51.278;12.588;2023-01-29T17:22:18;100788.97;;;21.85;53.00
14882;BME280;7533;51.278;12.588;2023-01-29T17:27:22;100793.41;;;21.86;53.34
14882;BME280;7533;51.278;12.588;2023-01-29T17:32:25;100792.44;;;21.87;53.16
14882;BME280;7533;51.278;12.588;2023-01-29T17:37:45;100798.03;;;21.84;53.04
14882;BME280;7533;51.278;12.588;2023-01-29T17:42:50;100792.53;;;21.86;52.80
14882;BME280;7533;51.278;12.588;2023-01-29T17:47:52;100785.31;;;21.86;53.29
14882;BME280;7533;51.278;12.588;2023-01-29T17:52:55;100780.31;;;21.80;53.33
14882;BME280;7533;51.278;12.588;2023-01-29T17:57:59;100780.13;;;21.83;53.26
14882;BME280;7533;51.278;12.588;2023-01-29T18:03:02;100763.00;;;21.84;53.19
14882;BME280;7533;51.278;12.588;2023-01-29T18:08:08;100757.88;;;21.94;53.07
14882;BME280;7533;51.278;12.588;2023-01-29T18:13:16;100748.34;;;21.88;53.05
14882;BME280;7533;51.278;12.588;2023-01-29T18:18:20;100729.59;;;21.87;53.24
14882;BME280;7533;51.278;12.588;2023-01-29T18:23:24;100724.78;;;21.92;52.60
14882;BME280;7533;51.278;12.588;2023-01-29T18:28:28;100709.34;;;21.94;52.60
14882;BME280;7533;51.278;12.588;2023-01-29T18:33:31;100708.59;;;21.92;52.80
14882;BME280;7533;51.278;12.588;2023-01-29T18:38:35;100707.75;;;21.91;52.78
14882;BME280;7533;51.278;12.588;2023-01-29T18:43:40;100688.19;;;21.88;52.81
14882;BME280;7533;51.278;12.588;2023-01-29T18:48:43;100679.94;;;21.91;52.84
14882;BME280;7533;51.278;12.588;2023-01-29T18:53:48;100654.53;;;21.95;52.53
14882;BME280;7533;51.278;12.588;2023-01-29T18:58:54;100656.81;;;21.87;52.39
14882;BME280;7533;51.278;12.588;2023-01-29T19:03:57;100651.28;;;21.76;52.95
14882;BME280;7533;51.278;12.588;2023-01-29T19:09:00;100641.69;;;21.99;51.46
14882;BME280;7533;51.278;12.588;2023-01-29T19:14:05;100646.59;;;22.06;51.10
14882;BME280;7533;51.278;12.588;2023-01-29T19:19:07;100639.38;;;22.07;50.93
14882;BME280;7533;51.278;12.588;2023-01-29T19:24:10;100638.38;;;22.08;51.30
14882;BME280;7533;51.278;12.588;2023-01-29T19:29:16;100644.31;;;21.86;52.07
14882;BME280;7533;51.278;12.588;2023-01-29T19:34:20;100628.94;;;22.15;51.73
14882;BME280;7533;51.278;12.588;2023-01-29T19:39:23;100629.19;;;22.12;51.96
14882;BME280;7533;51.278;12.588;2023-01-29T19:44:32;100627.91;;;22.17;51.98
14882;BME280;7533;51.278;12.588;2023-01-29T19:49:35;100617.13;;;22.03;52.39
14882;BME280;7533;51.278;12.588;2023-01-29T19:54:38;100613.56;;;22.03;52.39
14882;BME280;7533;51.278;12.588;2023-01-29T19:59:44;100617.59;;;22.10;52.50
14882;BME280;7533;51.278;12.588;2023-01-29T20:04:47;100621.66;;;22.03;52.59
14882;BME280;7533;51.278;12.588;2023-01-29T20:09:50;100619.06;;;22.01;52.65
14882;BME280;7533;51.278;12.588;2023-01-29T20:14:54;100603.53;;;22.05;52.49
14882;BME280;7533;51.278;12.588;2023-01-29T20:19:57;100609.72;;;22.07;52.51
14882;BME280;7533;51.278;12.588;2023-01-29T20:25:00;100597.69;;;22.12;52.54
14882;BME280;7533;51.278;12.588;2023-01-29T20:30:05;100589.88;;;22.08;52.25
14882;BME280;7533;51.278;12.588;2023-01-29T20:35:09;100587.06;;;22.09;52.33
14882;BME280;7533;51.278;12.588;2023-01-29T20:40:12;100584.47;;;22.08;52.48
14882;BME280;7533;51.278;12.588;2023-01-29T20:45:17;100580.53;;;22.13;52.13
14882;BME280;7533;51.278;12.588;2023-01-29T20:50:20;100570.41;;;22.17;52.08
14882;BME280;7533;51.278;12.588;2023-01-29T20:55:24;100557.25;;;22.12;51.79
14882;BME280;7533;51.278;12.588;2023-01-29T21:00:28;100555.97;;;22.18;51.83
14882;BME280;7533;51.278;12.588;2023-01-29T21:05:31;100543.00;;;22.10;52.14
14882;BME280;7533;51.278;12.588;2023-01-29T21:10:33;100529.22;;;22.15;51.80
14882;BME280;7533;51.278;12.588;2023-01-29T21:15:38;100530.38;;;22.11;51.91
14882;BME280;7533;51.278;12.588;2023-01-29T21:20:42;100519.59;;;22.11;51.97
14882;BME280;7533;51.278;12.588;2023-01-29T21:25:45;100501.50;;;22.13;51.78
14882;BME280;7533;51.278;12.588;2023-01-29T21:30:50;100502.63;;;22.09;51.57
14882;BME280;7533;51.278;12.588;2023-01-29T21:35:56;100485.22;;;22.14;51.43
14882;BME280;7533;51.278;12.588;2023-01-29T21:40:59;100473.97;;;22.08;51.65
14882;BME280;7533;51.278;12.588;2023-01-29T21:46:05;100454.38;;;22.18;51.24
14882;BME280;7533;51.278;12.588;2023-01-29T21:51:12;100437.28;;;22.05;51.45
14882;BME280;7533;51.278;12.588;2023-01-29T21:56:15;100424.47;;;22.09;51.31
14882;BME280;7533;51.278;12.588;2023-01-29T22:01:21;100414.22;;;22.01;50.68
14882;BME280;7533;51.278;12.588;2023-01-29T22:06:39;100401.50;;;22.03;51.61
14882;BME280;7533;51.278;12.588;2023-01-29T22:11:41;100402.19;;;22.20;51.26
14882;BME280;7533;51.278;12.588;2023-01-29T22:16:46;100394.84;;;22.22;51.44
14882;BME280;7533;51.278;12.588;2023-01-29T22:21:50;100394.84;;;22.22;51.50
14882;BME280;7533;51.278;12.588;2023-01-29T22:26:53;100389.34;;;22.23;51.59
14882;BME280;7533;51.278;12.588;2023-01-29T22:31:57;100387.09;;;22.17;51.87
14882;BME280;7533;51.278;12.588;2023-01-29T22:37:00;100365.19;;;22.22;52.09
14882;BME280;7533;51.278;12.588;2023-01-29T22:42:03;100360.75;;;22.21;52.30
14882;BME280;7533;51.278;12.588;2023-01-29T22:47:08;100357.94;;;22.22;52.14
14882;BME280;7533;51.278;12.588;2023-01-29T22:52:10;100330.78;;;22.25;52.27
14882;BME280;7533;51.278;12.588;2023-01-29T22:57:14;100325.28;;;22.27;52.37
14882;BME280;7533;51.278;12.588;2023-01-29T23:02:18;100316.31;;;22.26;52.39
14882;BME280;7533;51.278;12.588;2023-01-29T23:07:21;100332.50;;;22.26;52.37
14882;BME280;7533;51.278;12.588;2023-01-29T23:12:24;100320.13;;;22.24;52.49
14882;BME280;7533;51.278;12.588;2023-01-29T23:17:28;100312.13;;;22.22;52.55
14882;BME280;7533;51.278;12.588;2023-01-29T23:22:31;100291.94;;;22.28;52.38
14882;BME280;7533;51.278;12.588;2023-01-29T23:27:34;100276.00;;;22.25;52.64
14882;BME280;7533;51.278;12.588;2023-01-29T23:32:38;100282.91;;;22.29;52.67
14882;BME280;7533;51.278;12.588;2023-01-29T23:37:41;100277.28;;;22.32;52.65
14882;BME280;7533;51.278;12.588;2023-01-29T23:42:46;100257.66;;;22.30;52.61
14882;BME280;7533;51.278;12.588;2023-01-29T23:47:51;100242.66;;;22.26;52.87
14882;BME280;7533;51.278;12.588;2023-01-29T23:52:53;100226.03;;;22.32;52.75
14882;BME280;7533;51.278;12.588;2023-01-29T23:57:56;100200.38;;;22.26;52.51
